sensor_id;sensor_type;location;lat;lon;timestamp;P1;durP1;ratioP1;P2;durP2;ratioP2
47009;SDS011;59230;54.164;-3.124;2022-12-18T00:01:03;79.47;;;27.83;;
47009;SDS011;59230;54.164;-3.124;2022-12-18T00:03:34;86.95;;;27.00;;
47009;SDS011;59230;54.164;-3.124;2022-12-18T00:06:02;99.65;;;30.00;;
47009;SDS011;59230;54.164;-3.124;2022-12-18T00:08:28;92.15;;;28.40;;
47009;SDS011;59230;54.164;-3.124;2022-12-18T00:10:54;70.82;;;25.73;;
47009;SDS011;59230;54.164;-3.124;2022-12-18T00:13:20;70.60;;;25.08;;
47009;SDS011;59230;54.164;-3.124;2022-12-18T00:15:46;63.38;;;24.30;;
47009;SDS011;59230;54.164;-3.124;2022-12-18T00:18:16;81.60;;;26.85;;
47009;SDS011;59230;54.164;-3.124;2022-12-18T00:20:41;66.10;;;24.30;;
47009;SDS011;59230;54.164;-3.124;2022-12-18T00:23:07;60.88;;;25.33;;
47009;SDS011;59230;54.164;-3.124;2022-12-18T00:25:38;77.47;;;27.02;;
47009;SDS011;59230;54.164;-3.124;2022-12-18T00:28:04;74.20;;;27.35;;
47009;SDS011;59230;54.164;-3.124;2022-12-18T00:30:31;99.82;;;29.35;;
47009;SDS011;59230;54.164;-3.124;2022-12-18T00:32:58;81.47;;;27.25;;
47009;SDS011;59230;54.164;-3.124;2022-12-18T00:35:25;98.32;;;29.98;;
47009;SDS011;59230;54.164;-3.124;2022-12-18T00:37:51;80.28;;;28.95;;
47009;SDS011;59230;54.164;-3.124;2022-12-18T00:40:20;89.30;;;30.77;;
47009;SDS011;59230;54.164;-3.124;2022-12-18T00:42:45;94.13;;;31.65;;
47009;SDS011;59230;54.164;-3.124;2022-12-18T00:45:23;95.40;;;30.13;;
47009;SDS011;59230;54.164;-3.124;2022-12-18T00:47:50;76.10;;;28.85;;
47009;SDS011;59230;54.164;-3.124;2022-12-18T00:50:17;99.13;;;30.33;;
47009;SDS011;59230;54.164;-3.124;2022-12-18T00:52:45;79.28;;;28.63;;
47009;SDS011;59230;54.164;-3.124;2022-12-18T00:55:11;97.97;;;31.65;;
47009;SDS011;59230;54.164;-3.124;2022-12-18T00:57:38;86.55;;;27.98;;
47009;SDS011;59230;54.164;-3.124;2022-12-18T01:00:04;86.18;;;29.35;;
47009;SDS011;59230;54.164;-3.124;2022-12-18T01:02:32;74.65;;;27.70;;
47009;SDS011;59230;54.164;-3.124;2022-12-18T01:04:58;72.07;;;26.85;;
47009;SDS011;59230;54.164;-3.124;2022-12-18T01:07:25;76.20;;;26.05;;
47009;SDS011;59230;54.164;-3.124;2022-12-18T01:09:51;62.38;;;24.98;;
47009;SDS011;59230;54.164;-3.124;2022-12-18T01:12:17;77.20;;;25.70;;
47009;SDS011;59230;54.164;-3.124;2022-12-18T01:14:42;102.30;;;26.92;;
47009;SDS011;59230;54.164;-3.124;2022-12-18T01:17:08;64.40;;;25.38;;
47009;SDS011;59230;54.164;-3.124;2022-12-18T01:19:35;75.53;;;26.15;;
47009;SDS011;59230;54.164;-3.124;2022-12-18T01:22:02;64.28;;;24.38;;
47009;SDS011;59230;54.164;-3.124;2022-12-18T01:24:28;75.20;;;25.73;;
47009;SDS011;59230;54.164;-3.124;2022-12-18T01:26:54;95.78;;;28.17;;
47009;SDS011;59230;54.164;-3.124;2022-12-18T01:29:19;69.80;;;22.33;;
47009;SDS011;59230;54.164;-3.124;2022-12-18T01:31:46;77.05;;;25.27;;
47009;SDS011;59230;54.164;-3.124;2022-12-18T01:34:14;90.60;;;27.13;;
47009;SDS011;59230;54.164;-3.124;2022-12-18T01:36:39;78.47;;;26.15;;
47009;SDS011;59230;54.164;-3.124;2022-12-18T01:39:06;66.20;;;23.88;;
47009;SDS011;59230;54.164;-3.124;2022-12-18T01:41:36;71.07;;;25.88;;
47009;SDS011;59230;54.164;-3.124;2022-12-18T01:45:03;82.50;;;24.48;;
47009;SDS011;59230;54.164;-3.124;2022-12-18T01:53:00;61.53;;;20.90;;
47009;SDS011;59230;54.164;-3.124;2022-12-18T01:55:48;78.15;;;24.83;;
47009;SDS011;59230;54.164;-3.124;2022-12-18T01:58:18;70.80;;;22.80;;
47009;SDS011;59230;54.164;-3.124;2022-12-18T02:00:45;78.55;;;23.52;;
47009;SDS011;59230;54.164;-3.124;2022-12-18T02:03:11;68.35;;;23.17;;
47009;SDS011;59230;54.164;-3.124;2022-12-18T02:08:50;63.80;;;20.67;;
47009;SDS011;59230;54.164;-3.124;2022-12-18T02:17:04;55.10;;;20.50;;
47009;SDS011;59230;54.164;-3.124;2022-12-18T02:27:52;65.28;;;22.15;;
47009;SDS011;59230;54.164;-3.124;2022-12-18T02:30:19;46.88;;;19.23;;
47009;SDS011;59230;54.164;-3.124;2022-12-18T02:32:48;50.28;;;21.08;;
47009;SDS011;59230;54.164;-3.124;2022-12-18T02:35:22;67.53;;;21.38;;
47009;SDS011;59230;54.164;-3.124;2022-12-18T02:37:50;72.70;;;20.95;;
47009;SDS011;59230;54.164;-3.124;2022-12-18T02:40:22;66.47;;;22.42;;
47009;SDS011;59230;54.164;-3.124;2022-12-18T02:42:51;57.50;;;20.17;;
47009;SDS011;59230;54.164;-3.124;2022-12-18T02:45:17;41.30;;;17.95;;
47009;SDS011;59230;54.164;-3.124;2022-12-18T02:47:43;48.13;;;18.58;;
47009;SDS011;59230;54.164;-3.124;2022-12-18T02:52:56;55.65;;;19.85;;
47009;SDS011;59230;54.164;-3.124;2022-12-18T03:03:52;34.63;;;14.32;;
47009;SDS011;59230;54.164;-3.124;2022-12-18T03:06:24;47.97;;;14.45;;
47009;SDS011;59230;54.164;-3.124;2022-12-18T03:08:58;33.40;;;14.45;;
47009;SDS011;59230;54.164;-3.124;2022-12-18T03:11:25;39.33;;;14.77;;
47009;SDS011;59230;54.164;-3.124;2022-12-18T03:14:20;35.78;;;16.67;;
47009;SDS011;59230;54.164;-3.124;2022-12-18T03:16:48;45.53;;;16.50;;
47009;SDS011;59230;54.164;-3.124;2022-12-18T03:19:16;43.60;;;17.33;;
47009;SDS011;59230;54.164;-3.124;2022-12-18T03:21:49;43.95;;;17.27;;
47009;SDS011;59230;54.164;-3.124;2022-12-18T03:24:17;47.65;;;15.98;;
47009;SDS011;59230;54.164;-3.124;2022-12-18T03:26:44;50.22;;;17.17;;
47009;SDS011;59230;54.164;-3.124;2022-12-18T03:29:16;47.47;;;17.15;;
47009;SDS011;59230;54.164;-3.124;2022-12-18T03:31:49;35.75;;;15.23;;
47009;SDS011;59230;54.164;-3.124;2022-12-18T03:34:32;47.88;;;16.73;;
47009;SDS011;59230;54.164;-3.124;2022-12-18T03:37:01;45.50;;;17.48;;
47009;SDS011;59230;54.164;-3.124;2022-12-18T03:39:31;45.83;;;16.27;;
47009;SDS011;59230;54.164;-3.124;2022-12-18T03:44:40;29.23;;;14.15;;
47009;SDS011;59230;54.164;-3.124;2022-12-18T03:47:29;34.78;;;14.88;;
47009;SDS011;59230;54.164;-3.124;2022-12-18T03:55:38;27.98;;;13.98;;
47009;SDS011;59230;54.164;-3.124;2022-12-18T03:58:06;29.23;;;11.70;;
47009;SDS011;59230;54.164;-3.124;2022-12-18T04:00:33;23.50;;;11.23;;
47009;SDS011;59230;54.164;-3.124;2022-12-18T04:03:02;31.35;;;13.40;;
47009;SDS011;59230;54.164;-3.124;2022-12-18T04:05:30;36.90;;;12.15;;
47009;SDS011;59230;54.164;-3.124;2022-12-18T04:07:59;33.90;;;12.15;;
47009;SDS011;59230;54.164;-3.124;2022-12-18T04:10:26;32.90;;;12.00;;
47009;SDS011;59230;54.164;-3.124;2022-12-18T04:12:55;24.92;;;11.13;;
47009;SDS011;59230;54.164;-3.124;2022-12-18T04:15:23;26.27;;;8.70;;
47009;SDS011;59230;54.164;-3.124;2022-12-18T04:17:49;20.00;;;9.68;;
47009;SDS011;59230;54.164;-3.124;2022-12-18T04:20:16;31.33;;;9.07;;
47009;SDS011;59230;54.164;-3.124;2022-12-18T04:22:45;21.52;;;9.07;;
47009;SDS011;59230;54.164;-3.124;2022-12-18T04:25:13;25.25;;;8.57;;
47009;SDS011;59230;54.164;-3.124;2022-12-18T04:27:41;25.70;;;8.93;;
47009;SDS011;59230;54.164;-3.124;2022-12-18T04:30:07;20.73;;;7.70;;
47009;SDS011;59230;54.164;-3.124;2022-12-18T04:32:35;17.33;;;7.90;;
47009;SDS011;59230;54.164;-3.124;2022-12-18T04:35:02;16.52;;;6.68;;
47009;SDS011;59230;54.164;-3.124;2022-12-18T04:37:30;17.30;;;6.95;;
47009;SDS011;59230;54.164;-3.124;2022-12-18T04:39:56;15.85;;;5.78;;
47009;SDS011;59230;54.164;-3.124;2022-12-18T04:42:23;13.15;;;6.18;;
47009;SDS011;59230;54.164;-3.124;2022-12-18T04:44:50;12.10;;;5.57;;
47009;SDS011;59230;54.164;-3.124;2022-12-18T04:47:18;13.40;;;6.25;;
47009;SDS011;59230;54.164;-3.124;2022-12-18T04:49:45;14.65;;;6.57;;
47009;SDS011;59230;54.164;-3.124;2022-12-18T04:52:12;10.57;;;5.57;;
47009;SDS011;59230;54.164;-3.124;2022-12-18T04:54:38;18.48;;;6.15;;
47009;SDS011;59230;54.164;-3.124;2022-12-18T04:57:08;15.25;;;6.28;;
47009;SDS011;59230;54.164;-3.124;2022-12-18T04:59:39;19.95;;;7.03;;
47009;SDS011;59230;54.164;-3.124;2022-12-18T05:02:08;20.77;;;6.93;;
47009;SDS011;59230;54.164;-3.124;2022-12-18T05:04:33;13.15;;;6.55;;
47009;SDS011;59230;54.164;-3.124;2022-12-18T05:07:00;14.23;;;6.78;;
47009;SDS011;59230;54.164;-3.124;2022-12-18T05:09:27;19.42;;;8.10;;
47009;SDS011;59230;54.164;-3.124;2022-12-18T05:11:56;17.90;;;7.88;;
47009;SDS011;59230;54.164;-3.124;2022-12-18T05:14:21;20.73;;;7.65;;
47009;SDS011;59230;54.164;-3.124;2022-12-18T05:16:47;21.45;;;7.90;;
47009;SDS011;59230;54.164;-3.124;2022-12-18T05:19:14;18.38;;;8.07;;
47009;SDS011;59230;54.164;-3.124;2022-12-18T05:21:40;26.27;;;8.85;;
47009;SDS011;59230;54.164;-3.124;2022-12-18T05:24:07;24.45;;;8.18;;
47009;SDS011;59230;54.164;-3.124;2022-12-18T05:26:33;22.58;;;7.95;;
47009;SDS011;59230;54.164;-3.124;2022-12-18T05:29:02;18.85;;;7.50;;
47009;SDS011;59230;54.164;-3.124;2022-12-18T05:31:29;15.32;;;7.90;;
47009;SDS011;59230;54.164;-3.124;2022-12-18T05:33:57;16.10;;;6.97;;
47009;SDS011;59230;54.164;-3.124;2022-12-18T05:36:22;14.85;;;7.22;;
47009;SDS011;59230;54.164;-3.124;2022-12-18T05:38:51;22.88;;;7.15;;
47009;SDS011;59230;54.164;-3.124;2022-12-18T05:41:16;18.90;;;8.10;;
47009;SDS011;59230;54.164;-3.124;2022-12-18T05:43:42;20.58;;;7.00;;
47009;SDS011;59230;54.164;-3.124;2022-12-18T05:46:12;20.38;;;8.07;;
47009;SDS011;59230;54.164;-3.124;2022-12-18T05:48:40;21.00;;;8.03;;
47009;SDS011;59230;54.164;-3.124;2022-12-18T05:51:12;20.08;;;8.02;;
47009;SDS011;59230;54.164;-3.124;2022-12-18T05:53:41;18.55;;;6.68;;
47009;SDS011;59230;54.164;-3.124;2022-12-18T05:56:08;24.17;;;7.47;;
47009;SDS011;59230;54.164;-3.124;2022-12-18T05:58:42;18.48;;;6.93;;
47009;SDS011;59230;54.164;-3.124;2022-12-18T06:01:10;19.35;;;7.20;;
47009;SDS011;59230;54.164;-3.124;2022-12-18T06:03:37;20.42;;;7.95;;
47009;SDS011;59230;54.164;-3.124;2022-12-18T06:06:02;19.20;;;7.60;;
47009;SDS011;59230;54.164;-3.124;2022-12-18T06:08:28;22.77;;;8.43;;
47009;SDS011;59230;54.164;-3.124;2022-12-18T06:10:56;20.38;;;8.32;;
47009;SDS011;59230;54.164;-3.124;2022-12-18T06:13:27;20.02;;;8.05;;
47009;SDS011;59230;54.164;-3.124;2022-12-18T06:15:53;21.15;;;8.52;;
47009;SDS011;59230;54.164;-3.124;2022-12-18T06:18:18;21.65;;;8.95;;
47009;SDS011;59230;54.164;-3.124;2022-12-18T06:20:44;24.00;;;8.75;;
47009;SDS011;59230;54.164;-3.124;2022-12-18T06:23:10;20.67;;;9.50;;
47009;SDS011;59230;54.164;-3.124;2022-12-18T06:25:41;25.15;;;9.23;;
47009;SDS011;59230;54.164;-3.124;2022-12-18T06:28:07;28.05;;;9.88;;
47009;SDS011;59230;54.164;-3.124;2022-12-18T06:30:34;26.25;;;9.60;;
47009;SDS011;59230;54.164;-3.124;2022-12-18T06:33:02;22.95;;;8.27;;
47009;SDS011;59230;54.164;-3.124;2022-12-18T06:35:29;22.15;;;7.55;;
47009;SDS011;59230;54.164;-3.124;2022-12-18T06:37:58;20.65;;;8.52;;
47009;SDS011;59230;54.164;-3.124;2022-12-18T06:40:26;25.55;;;9.63;;
47009;SDS011;59230;54.164;-3.124;2022-12-18T06:42:53;27.02;;;11.52;;
47009;SDS011;59230;54.164;-3.124;2022-12-18T06:45:18;21.42;;;10.05;;
47009;SDS011;59230;54.164;-3.124;2022-12-18T06:47:44;17.35;;;8.05;;
47009;SDS011;59230;54.164;-3.124;2022-12-18T06:50:10;18.95;;;8.15;;
47009;SDS011;59230;54.164;-3.124;2022-12-18T06:52:37;20.73;;;9.40;;
47009;SDS011;59230;54.164;-3.124;2022-12-18T06:55:10;18.13;;;8.40;;
47009;SDS011;59230;54.164;-3.124;2022-12-18T06:57:37;25.55;;;10.88;;
47009;SDS011;59230;54.164;-3.124;2022-12-18T07:00:05;36.92;;;11.40;;
47009;SDS011;59230;54.164;-3.124;2022-12-18T07:02:33;30.77;;;11.48;;
47009;SDS011;59230;54.164;-3.124;2022-12-18T07:05:00;21.05;;;8.93;;
47009;SDS011;59230;54.164;-3.124;2022-12-18T07:07:28;20.55;;;8.48;;
47009;SDS011;59230;54.164;-3.124;2022-12-18T07:09:54;16.23;;;8.02;;
47009;SDS011;59230;54.164;-3.124;2022-12-18T07:12:20;18.83;;;7.93;;
47009;SDS011;59230;54.164;-3.124;2022-12-18T07:14:46;17.55;;;7.70;;
47009;SDS011;59230;54.164;-3.124;2022-12-18T07:17:15;22.60;;;8.77;;
47009;SDS011;59230;54.164;-3.124;2022-12-18T07:19:41;20.42;;;9.02;;
47009;SDS011;59230;54.164;-3.124;2022-12-18T07:22:07;20.45;;;9.02;;
47009;SDS011;59230;54.164;-3.124;2022-12-18T07:24:32;19.50;;;8.32;;
47009;SDS011;59230;54.164;-3.124;2022-12-18T07:26:59;16.33;;;7.82;;
47009;SDS011;59230;54.164;-3.124;2022-12-18T07:29:25;16.65;;;7.75;;
47009;SDS011;59230;54.164;-3.124;2022-12-18T07:31:50;20.65;;;8.73;;
47009;SDS011;59230;54.164;-3.124;2022-12-18T07:34:16;20.13;;;7.70;;
47009;SDS011;59230;54.164;-3.124;2022-12-18T07:36:42;22.50;;;9.05;;
47009;SDS011;59230;54.164;-3.124;2022-12-18T07:39:11;16.13;;;8.23;;
47009;SDS011;59230;54.164;-3.124;2022-12-18T07:41:38;18.02;;;9.18;;
47009;SDS011;59230;54.164;-3.124;2022-12-18T07:44:09;21.40;;;8.65;;
47009;SDS011;59230;54.164;-3.124;2022-12-18T07:46:37;17.40;;;8.77;;
47009;SDS011;59230;54.164;-3.124;2022-12-18T07:49:03;22.15;;;8.95;;
47009;SDS011;59230;54.164;-3.124;2022-12-18T07:51:28;31.05;;;10.00;;
47009;SDS011;59230;54.164;-3.124;2022-12-18T07:53:54;21.25;;;10.43;;
47009;SDS011;59230;54.164;-3.124;2022-12-18T07:56:20;18.25;;;8.98;;
47009;SDS011;59230;54.164;-3.124;2022-12-18T07:58:46;18.88;;;9.30;;
47009;SDS011;59230;54.164;-3.124;2022-12-18T08:01:14;28.88;;;9.70;;
47009;SDS011;59230;54.164;-3.124;2022-12-18T08:03:40;17.23;;;9.35;;
47009;SDS011;59230;54.164;-3.124;2022-12-18T08:06:09;22.38;;;10.85;;
47009;SDS011;59230;54.164;-3.124;2022-12-18T08:08:37;25.05;;;11.07;;
47009;SDS011;59230;54.164;-3.124;2022-12-18T08:11:03;26.38;;;10.52;;
47009;SDS011;59230;54.164;-3.124;2022-12-18T08:13:32;24.77;;;11.10;;
47009;SDS011;59230;54.164;-3.124;2022-12-18T08:16:07;22.52;;;11.43;;
47009;SDS011;59230;54.164;-3.124;2022-12-18T08:18:35;22.05;;;11.52;;
47009;SDS011;59230;54.164;-3.124;2022-12-18T08:21:12;27.58;;;12.32;;
47009;SDS011;59230;54.164;-3.124;2022-12-18T08:23:47;30.92;;;12.68;;
47009;SDS011;59230;54.164;-3.124;2022-12-18T08:26:13;34.70;;;14.95;;
47009;SDS011;59230;54.164;-3.124;2022-12-18T08:28:39;30.15;;;14.10;;
47009;SDS011;59230;54.164;-3.124;2022-12-18T08:31:04;34.83;;;15.88;;
47009;SDS011;59230;54.164;-3.124;2022-12-18T08:33:30;34.20;;;15.75;;
47009;SDS011;59230;54.164;-3.124;2022-12-18T08:35:58;35.22;;;16.05;;
47009;SDS011;59230;54.164;-3.124;2022-12-18T08:38:25;39.70;;;16.63;;
47009;SDS011;59230;54.164;-3.124;2022-12-18T08:41:00;33.60;;;15.77;;
47009;SDS011;59230;54.164;-3.124;2022-12-18T08:43:29;41.15;;;16.38;;
47009;SDS011;59230;54.164;-3.124;2022-12-18T08:46:16;44.10;;;16.92;;
47009;SDS011;59230;54.164;-3.124;2022-12-18T08:48:44;38.10;;;16.20;;
47009;SDS011;59230;54.164;-3.124;2022-12-18T08:51:10;37.20;;;16.13;;
47009;SDS011;59230;54.164;-3.124;2022-12-18T08:53:36;46.28;;;18.77;;
47009;SDS011;59230;54.164;-3.124;2022-12-18T08:56:03;38.10;;;18.35;;
47009;SDS011;59230;54.164;-3.124;2022-12-18T08:58:32;48.28;;;20.00;;
47009;SDS011;59230;54.164;-3.124;2022-12-18T09:01:02;43.30;;;18.98;;
47009;SDS011;59230;54.164;-3.124;2022-12-18T09:03:28;41.88;;;19.88;;
47009;SDS011;59230;54.164;-3.124;2022-12-18T09:05:55;47.60;;;22.63;;
47009;SDS011;59230;54.164;-3.124;2022-12-18T09:08:20;58.88;;;24.85;;
47009;SDS011;59230;54.164;-3.124;2022-12-18T09:10:47;52.83;;;23.00;;
47009;SDS011;59230;54.164;-3.124;2022-12-18T09:13:18;52.90;;;23.65;;
47009;SDS011;59230;54.164;-3.124;2022-12-18T09:15:46;44.20;;;20.23;;
47009;SDS011;59230;54.164;-3.124;2022-12-18T09:18:13;50.25;;;21.77;;
47009;SDS011;59230;54.164;-3.124;2022-12-18T09:20:40;44.45;;;20.80;;
47009;SDS011;59230;54.164;-3.124;2022-12-18T09:23:06;54.60;;;23.50;;
47009;SDS011;59230;54.164;-3.124;2022-12-18T09:25:32;57.17;;;24.25;;
47009;SDS011;59230;54.164;-3.124;2022-12-18T09:28:02;51.42;;;22.40;;
47009;SDS011;59230;54.164;-3.124;2022-12-18T09:30:31;54.15;;;21.20;;
47009;SDS011;59230;54.164;-3.124;2022-12-18T09:32:58;52.92;;;21.83;;
47009;SDS011;59230;54.164;-3.124;2022-12-18T09:35:25;51.05;;;20.55;;
47009;SDS011;59230;54.164;-3.124;2022-12-18T09:37:52;49.33;;;21.30;;
47009;SDS011;59230;54.164;-3.124;2022-12-18T09:40:22;48.03;;;20.25;;
47009;SDS011;59230;54.164;-3.124;2022-12-18T09:42:57;46.78;;;21.55;;
47009;SDS011;59230;54.164;-3.124;2022-12-18T09:45:26;48.38;;;21.27;;
47009;SDS011;59230;54.164;-3.124;2022-12-18T09:47:54;54.20;;;22.70;;
47009;SDS011;59230;54.164;-3.124;2022-12-18T09:52:53;54.13;;;22.48;;
47009;SDS011;59230;54.164;-3.124;2022-12-18T09:55:28;47.45;;;21.00;;
47009;SDS011;59230;54.164;-3.124;2022-12-18T10:00:51;50.30;;;22.00;;
47009;SDS011;59230;54.164;-3.124;2022-12-18T10:03:19;53.63;;;24.80;;
47009;SDS011;59230;54.164;-3.124;2022-12-18T10:05:52;60.25;;;26.92;;
47009;SDS011;59230;54.164;-3.124;2022-12-18T10:08:32;71.18;;;28.30;;
47009;SDS011;59230;54.164;-3.124;2022-12-18T10:11:17;56.40;;;25.17;;
47009;SDS011;59230;54.164;-3.124;2022-12-18T10:13:57;44.25;;;20.83;;
47009;SDS011;59230;54.164;-3.124;2022-12-18T10:16:27;40.80;;;18.63;;
47009;SDS011;59230;54.164;-3.124;2022-12-18T10:24:51;36.17;;;18.52;;
47009;SDS011;59230;54.164;-3.124;2022-12-18T10:27:23;37.10;;;19.00;;
47009;SDS011;59230;54.164;-3.124;2022-12-18T10:29:54;45.53;;;18.95;;
47009;SDS011;59230;54.164;-3.124;2022-12-18T10:32:22;38.40;;;17.65;;
47009;SDS011;59230;54.164;-3.124;2022-12-18T10:34:55;35.92;;;17.83;;
47009;SDS011;59230;54.164;-3.124;2022-12-18T10:37:26;41.65;;;18.95;;
47009;SDS011;59230;54.164;-3.124;2022-12-18T10:42:42;39.17;;;20.42;;
47009;SDS011;59230;54.164;-3.124;2022-12-18T10:45:13;50.72;;;24.75;;
47009;SDS011;59230;54.164;-3.124;2022-12-18T10:47:44;46.63;;;24.40;;
47009;SDS011;59230;54.164;-3.124;2022-12-18T10:50:18;44.70;;;24.80;;
47009;SDS011;59230;54.164;-3.124;2022-12-18T10:52:55;52.80;;;28.60;;
47009;SDS011;59230;54.164;-3.124;2022-12-18T10:55:22;55.55;;;30.38;;
47009;SDS011;59230;54.164;-3.124;2022-12-18T11:06:09;49.53;;;25.75;;
47009;SDS011;59230;54.164;-3.124;2022-12-18T11:11:50;62.67;;;27.27;;
47009;SDS011;59230;54.164;-3.124;2022-12-18T11:20:36;56.70;;;26.95;;
47009;SDS011;59230;54.164;-3.124;2022-12-18T11:23:05;56.47;;;27.25;;
47009;SDS011;59230;54.164;-3.124;2022-12-18T11:25:39;56.38;;;27.23;;
47009;SDS011;59230;54.164;-3.124;2022-12-18T11:31:17;52.00;;;26.08;;
47009;SDS011;59230;54.164;-3.124;2022-12-18T11:33:48;48.40;;;22.95;;
47009;SDS011;59230;54.164;-3.124;2022-12-18T11:36:20;48.78;;;24.42;;
47009;SDS011;59230;54.164;-3.124;2022-12-18T11:38:48;104.07;;;44.90;;
47009;SDS011;59230;54.164;-3.124;2022-12-18T11:44:35;44.47;;;20.50;;
47009;SDS011;59230;54.164;-3.124;2022-12-18T11:49:43;84.13;;;34.92;;
47009;SDS011;59230;54.164;-3.124;2022-12-18T11:52:30;44.78;;;18.88;;
47009;SDS011;59230;54.164;-3.124;2022-12-18T11:55:01;47.95;;;22.08;;
47009;SDS011;59230;54.164;-3.124;2022-12-18T12:00:20;47.65;;;20.73;;
47009;SDS011;59230;54.164;-3.124;2022-12-18T12:05:56;49.42;;;20.92;;
47009;SDS011;59230;54.164;-3.124;2022-12-18T12:29:17;71.30;;;32.20;;
47009;SDS011;59230;54.164;-3.124;2022-12-18T12:32:07;71.15;;;30.70;;
47009;SDS011;59230;54.164;-3.124;2022-12-18T12:40:20;211.05;;;80.78;;
47009;SDS011;59230;54.164;-3.124;2022-12-18T12:43:34;223.57;;;85.78;;
47009;SDS011;59230;54.164;-3.124;2022-12-18T12:46:04;108.03;;;45.90;;
47009;SDS011;59230;54.164;-3.124;2022-12-18T12:53:52;83.32;;;35.90;;
47009;SDS011;59230;54.164;-3.124;2022-12-18T12:56:20;77.43;;;31.63;;
47009;SDS011;59230;54.164;-3.124;2022-12-18T12:59:10;73.18;;;32.22;;
47009;SDS011;59230;54.164;-3.124;2022-12-18T13:01:49;72.97;;;31.65;;
47009;SDS011;59230;54.164;-3.124;2022-12-18T13:07:16;121.35;;;46.28;;
47009;SDS011;59230;54.164;-3.124;2022-12-18T13:12:58;93.03;;;37.58;;
47009;SDS011;59230;54.164;-3.124;2022-12-18T13:18:12;79.47;;;31.60;;
47009;SDS011;59230;54.164;-3.124;2022-12-18T13:20:43;90.07;;;33.65;;
47009;SDS011;59230;54.164;-3.124;2022-12-18T13:36:47;90.82;;;33.08;;
47009;SDS011;59230;54.164;-3.124;2022-12-18T13:41:40;85.70;;;35.60;;
47009;SDS011;59230;54.164;-3.124;2022-12-18T13:44:24;87.75;;;34.28;;
47009;SDS011;59230;54.164;-3.124;2022-12-18T13:47:01;84.38;;;30.73;;
47009;SDS011;59230;54.164;-3.124;2022-12-18T13:49:43;87.97;;;28.98;;
47009;SDS011;59230;54.164;-3.124;2022-12-18T13:52:26;118.97;;;38.13;;
47009;SDS011;59230;54.164;-3.124;2022-12-18T13:54:59;156.50;;;46.35;;
47009;SDS011;59230;54.164;-3.124;2022-12-18T13:57:31;107.10;;;35.20;;
47009;SDS011;59230;54.164;-3.124;2022-12-18T14:02:47;102.40;;;28.48;;
47009;SDS011;59230;54.164;-3.124;2022-12-18T14:05:23;85.75;;;26.42;;
47009;SDS011;59230;54.164;-3.124;2022-12-18T14:07:50;132.52;;;28.30;;
47009;SDS011;59230;54.164;-3.124;2022-12-18T14:10:19;117.53;;;33.30;;
47009;SDS011;59230;54.164;-3.124;2022-12-18T14:12:50;87.80;;;26.55;;
47009;SDS011;59230;54.164;-3.124;2022-12-18T14:15:38;104.57;;;28.60;;
47009;SDS011;59230;54.164;-3.124;2022-12-18T14:20:48;136.25;;;37.17;;
47009;SDS011;59230;54.164;-3.124;2022-12-18T14:23:26;147.75;;;31.42;;
47009;SDS011;59230;54.164;-3.124;2022-12-18T14:28:48;199.20;;;62.03;;
47009;SDS011;59230;54.164;-3.124;2022-12-18T14:31:19;125.55;;;29.20;;
47009;SDS011;59230;54.164;-3.124;2022-12-18T14:33:51;111.45;;;28.38;;
47009;SDS011;59230;54.164;-3.124;2022-12-18T14:36:18;118.75;;;28.92;;
47009;SDS011;59230;54.164;-3.124;2022-12-18T14:38:51;136.30;;;38.22;;
47009;SDS011;59230;54.164;-3.124;2022-12-18T14:41:25;121.93;;;30.35;;
47009;SDS011;59230;54.164;-3.124;2022-12-18T14:43:54;124.50;;;36.95;;
47009;SDS011;59230;54.164;-3.124;2022-12-18T14:46:32;130.02;;;37.20;;
47009;SDS011;59230;54.164;-3.124;2022-12-18T14:54:32;156.77;;;39.15;;
47009;SDS011;59230;54.164;-3.124;2022-12-18T14:57:00;247.93;;;56.90;;
47009;SDS011;59230;54.164;-3.124;2022-12-18T14:59:28;125.80;;;29.67;;
47009;SDS011;59230;54.164;-3.124;2022-12-18T15:04:35;162.60;;;42.05;;
47009;SDS011;59230;54.164;-3.124;2022-12-18T15:07:15;152.02;;;35.33;;
47009;SDS011;59230;54.164;-3.124;2022-12-18T15:16:10;172.90;;;36.20;;
47009;SDS011;59230;54.164;-3.124;2022-12-18T15:20:52;262.50;;;46.08;;
47009;SDS011;59230;54.164;-3.124;2022-12-18T15:23:24;233.18;;;47.30;;
47009;SDS011;59230;54.164;-3.124;2022-12-18T15:26:03;271.50;;;59.90;;
47009;SDS011;59230;54.164;-3.124;2022-12-18T15:34:13;460.40;;;114.85;;
47009;SDS011;59230;54.164;-3.124;2022-12-18T15:36:44;294.00;;;68.53;;
47009;SDS011;59230;54.164;-3.124;2022-12-18T15:39:12;182.93;;;44.92;;
47009;SDS011;59230;54.164;-3.124;2022-12-18T15:41:38;200.98;;;46.22;;
47009;SDS011;59230;54.164;-3.124;2022-12-18T15:44:33;240.93;;;52.83;;
47009;SDS011;59230;54.164;-3.124;2022-12-18T15:46:54;231.82;;;49.75;;
47009;SDS011;59230;54.164;-3.124;2022-12-18T15:49:20;203.63;;;44.58;;
47009;SDS011;59230;54.164;-3.124;2022-12-18T15:52:08;180.93;;;46.90;;
47009;SDS011;59230;54.164;-3.124;2022-12-18T15:54:33;177.57;;;48.58;;
47009;SDS011;59230;54.164;-3.124;2022-12-18T15:57:17;198.88;;;48.67;;
47009;SDS011;59230;54.164;-3.124;2022-12-18T15:59:54;210.68;;;50.28;;
47009;SDS011;59230;54.164;-3.124;2022-12-18T16:02:24;267.13;;;62.00;;
47009;SDS011;59230;54.164;-3.124;2022-12-18T16:04:55;227.55;;;46.60;;
47009;SDS011;59230;54.164;-3.124;2022-12-18T16:07:21;267.63;;;47.38;;
47009;SDS011;59230;54.164;-3.124;2022-12-18T16:09:46;210.77;;;47.25;;
47009;SDS011;59230;54.164;-3.124;2022-12-18T16:12:16;366.98;;;56.25;;
47009;SDS011;59230;54.164;-3.124;2022-12-18T16:14:44;248.35;;;49.25;;
47009;SDS011;59230;54.164;-3.124;2022-12-18T16:17:11;184.02;;;44.33;;
47009;SDS011;59230;54.164;-3.124;2022-12-18T16:19:38;182.40;;;43.22;;
47009;SDS011;59230;54.164;-3.124;2022-12-18T16:22:05;211.15;;;42.65;;
47009;SDS011;59230;54.164;-3.124;2022-12-18T16:24:40;235.55;;;44.28;;
47009;SDS011;59230;54.164;-3.124;2022-12-18T16:27:07;204.25;;;43.78;;
47009;SDS011;59230;54.164;-3.124;2022-12-18T16:29:33;188.85;;;43.20;;
47009;SDS011;59230;54.164;-3.124;2022-12-18T16:31:59;162.68;;;39.67;;
47009;SDS011;59230;54.164;-3.124;2022-12-18T16:34:29;185.65;;;41.55;;
47009;SDS011;59230;54.164;-3.124;2022-12-18T16:36:57;221.23;;;44.97;;
47009;SDS011;59230;54.164;-3.124;2022-12-18T16:39:30;147.07;;;35.97;;
47009;SDS011;59230;54.164;-3.124;2022-12-18T16:41:57;99.75;;;29.48;;
47009;SDS011;59230;54.164;-3.124;2022-12-18T16:44:26;124.22;;;29.33;;
47009;SDS011;59230;54.164;-3.124;2022-12-18T16:46:54;113.47;;;29.58;;
47009;SDS011;59230;54.164;-3.124;2022-12-18T16:49:19;76.70;;;25.02;;
47009;SDS011;59230;54.164;-3.124;2022-12-18T16:51:47;76.72;;;25.58;;
47009;SDS011;59230;54.164;-3.124;2022-12-18T16:54:14;71.07;;;22.77;;
47009;SDS011;59230;54.164;-3.124;2022-12-18T16:56:40;66.03;;;23.00;;
47009;SDS011;59230;54.164;-3.124;2022-12-18T16:59:11;61.00;;;22.40;;
47009;SDS011;59230;54.164;-3.124;2022-12-18T17:01:37;75.20;;;24.20;;
47009;SDS011;59230;54.164;-3.124;2022-12-18T17:04:06;79.97;;;26.40;;
47009;SDS011;59230;54.164;-3.124;2022-12-18T17:06:34;74.28;;;26.45;;
47009;SDS011;59230;54.164;-3.124;2022-12-18T17:09:07;58.78;;;24.33;;
47009;SDS011;59230;54.164;-3.124;2022-12-18T17:11:35;86.93;;;27.90;;
47009;SDS011;59230;54.164;-3.124;2022-12-18T17:14:07;99.32;;;27.00;;
47009;SDS011;59230;54.164;-3.124;2022-12-18T17:16:36;90.00;;;24.65;;
47009;SDS011;59230;54.164;-3.124;2022-12-18T17:19:02;67.60;;;24.92;;